sensor_id;sensor_type;location;lat;lon;timestamp;P1;durP1;ratioP1;P2;durP2;ratioP2
6374;SDS011;35400;45.472;-122.822;2023-05-10T00:00:41;1.83;;;0.60;;
6374;SDS011;35400;45.472;-122.822;2023-05-10T00:03:07;0.50;;;0.50;;
6374;SDS011;35400;45.472;-122.822;2023-05-10T00:05:34;0.83;;;0.50;;
6374;SDS011;35400;45.472;-122.822;2023-05-10T00:08:01;0.50;;;0.50;;
6374;SDS011;35400;45.472;-122.822;2023-05-10T00:10:28;0.70;;;0.43;;
6374;SDS011;35400;45.472;-122.822;2023-05-10T00:12:55;0.53;;;0.50;;
6374;SDS011;35400;45.472;-122.822;2023-05-10T00:15:22;0.90;;;0.60;;
6374;SDS011;35400;45.472;-122.822;2023-05-10T00:17:49;0.60;;;0.60;;
6374;SDS011;35400;45.472;-122.822;2023-05-10T00:20:15;1.10;;;0.70;;
6374;SDS011;35400;45.472;-122.822;2023-05-10T00:22:42;2.27;;;0.70;;
6374;SDS011;35400;45.472;-122.822;2023-05-10T00:25:09;1.37;;;0.67;;
6374;SDS011;35400;45.472;-122.822;2023-05-10T00:27:36;1.10;;;0.60;;
6374;SDS011;35400;45.472;-122.822;2023-05-10T00:30:04;1.70;;;0.87;;
6374;SDS011;35400;45.472;-122.822;2023-05-10T00:32:32;1.03;;;0.60;;
6374;SDS011;35400;45.472;-122.822;2023-05-10T00:34:58;1.13;;;0.60;;
6374;SDS011;35400;45.472;-122.822;2023-05-10T00:37:26;0.73;;;0.73;;
6374;SDS011;35400;45.472;-122.822;2023-05-10T00:39:54;1.60;;;0.87;;
6374;SDS011;35400;45.472;-122.822;2023-05-10T00:42:21;1.10;;;0.60;;
6374;SDS011;35400;45.472;-122.822;2023-05-10T00:44:48;1.33;;;0.60;;
6374;SDS011;35400;45.472;-122.822;2023-05-10T00:47:15;1.30;;;0.70;;
6374;SDS011;35400;45.472;-122.822;2023-05-10T00:49:43;0.70;;;0.70;;
6374;SDS011;35400;45.472;-122.822;2023-05-10T00:52:11;1.77;;;0.70;;
6374;SDS011;35400;45.472;-122.822;2023-05-10T00:54:40;0.90;;;0.60;;
6374;SDS011;35400;45.472;-122.822;2023-05-10T00:57:07;1.70;;;0.70;;
6374;SDS011;35400;45.472;-122.822;2023-05-10T00:59:35;2.07;;;1.23;;
6374;SDS011;35400;45.472;-122.822;2023-05-10T01:02:02;4.07;;;2.10;;
6374;SDS011;35400;45.472;-122.822;2023-05-10T01:04:29;1.33;;;0.73;;
6374;SDS011;35400;45.472;-122.822;2023-05-10T01:06:56;4.93;;;2.37;;
6374;SDS011;35400;45.472;-122.822;2023-05-10T01:09:23;2.33;;;1.30;;
6374;SDS011;35400;45.472;-122.822;2023-05-10T01:11:52;1.13;;;0.80;;
6374;SDS011;35400;45.472;-122.822;2023-05-10T01:14:19;1.13;;;0.80;;
6374;SDS011;35400;45.472;-122.822;2023-05-10T01:16:48;1.33;;;0.63;;
6374;SDS011;35400;45.472;-122.822;2023-05-10T01:19:19;1.03;;;0.70;;
6374;SDS011;35400;45.472;-122.822;2023-05-10T01:32:51;0.90;;;0.60;;
6374;SDS011;35400;45.472;-122.822;2023-05-10T01:38:29;1.60;;;0.80;;
6374;SDS011;35400;45.472;-122.822;2023-05-10T01:43:41;0.60;;;0.60;;
6374;SDS011;35400;45.472;-122.822;2023-05-10T01:46:16;2.07;;;0.80;;
6374;SDS011;35400;45.472;-122.822;2023-05-10T01:48:48;0.60;;;0.60;;
6374;SDS011;35400;45.472;-122.822;2023-05-10T01:51:23;3.00;;;0.80;;
6374;SDS011;35400;45.472;-122.822;2023-05-10T01:53:54;1.70;;;0.90;;
6374;SDS011;35400;45.472;-122.822;2023-05-10T01:56:28;0.70;;;0.60;;
6374;SDS011;35400;45.472;-122.822;2023-05-10T01:58:58;1.90;;;0.70;;
6374;SDS011;35400;45.472;-122.822;2023-05-10T02:01:30;0.77;;;0.50;;
6374;SDS011;35400;45.472;-122.822;2023-05-10T02:03:59;2.10;;;0.90;;
6374;SDS011;35400;45.472;-122.822;2023-05-10T02:06:28;0.50;;;0.50;;
6374;SDS011;35400;45.472;-122.822;2023-05-10T02:08:56;1.13;;;0.60;;
6374;SDS011;35400;45.472;-122.822;2023-05-10T02:11:23;2.80;;;0.80;;
6374;SDS011;35400;45.472;-122.822;2023-05-10T02:13:52;0.93;;;0.80;;
6374;SDS011;35400;45.472;-122.822;2023-05-10T02:16:26;1.17;;;0.60;;
6374;SDS011;35400;45.472;-122.822;2023-05-10T02:18:56;1.87;;;0.70;;
6374;SDS011;35400;45.472;-122.822;2023-05-10T02:21:25;1.70;;;0.70;;
6374;SDS011;35400;45.472;-122.822;2023-05-10T02:23:53;1.13;;;0.60;;
6374;SDS011;35400;45.472;-122.822;2023-05-10T02:26:21;1.00;;;0.80;;
6374;SDS011;35400;45.472;-122.822;2023-05-10T02:28:49;1.20;;;0.77;;
6374;SDS011;35400;45.472;-122.822;2023-05-10T02:31:18;0.77;;;0.70;;
6374;SDS011;35400;45.472;-122.822;2023-05-10T02:33:46;1.43;;;0.53;;
6374;SDS011;35400;45.472;-122.822;2023-05-10T02:36:17;0.57;;;0.57;;
6374;SDS011;35400;45.472;-122.822;2023-05-10T02:38:46;2.47;;;0.67;;
6374;SDS011;35400;45.472;-122.822;2023-05-10T02:41:15;1.80;;;0.60;;
6374;SDS011;35400;45.472;-122.822;2023-05-10T02:43:44;1.83;;;0.80;;
6374;SDS011;35400;45.472;-122.822;2023-05-10T02:46:12;1.13;;;0.70;;
6374;SDS011;35400;45.472;-122.822;2023-05-10T02:48:39;1.27;;;0.80;;
6374;SDS011;35400;45.472;-122.822;2023-05-10T02:51:07;0.70;;;0.70;;
6374;SDS011;35400;45.472;-122.822;2023-05-10T02:53:36;1.40;;;0.70;;
6374;SDS011;35400;45.472;-122.822;2023-05-10T02:56:14;2.47;;;0.80;;
6374;SDS011;35400;45.472;-122.822;2023-05-10T02:58:50;0.70;;;0.70;;
6374;SDS011;35400;45.472;-122.822;2023-05-10T03:01:18;1.47;;;1.00;;
6374;SDS011;35400;45.472;-122.822;2023-05-10T03:03:44;0.90;;;0.90;;
6374;SDS011;35400;45.472;-122.822;2023-05-10T03:06:11;0.60;;;0.60;;
6374;SDS011;35400;45.472;-122.822;2023-05-10T03:08:38;0.70;;;0.70;;
6374;SDS011;35400;45.472;-122.822;2023-05-10T03:14:08;0.87;;;0.87;;
6374;SDS011;35400;45.472;-122.822;2023-05-10T03:16:46;1.73;;;0.67;;
6374;SDS011;35400;45.472;-122.822;2023-05-10T03:19:24;1.53;;;1.10;;
6374;SDS011;35400;45.472;-122.822;2023-05-10T03:21:59;1.43;;;1.03;;
6374;SDS011;35400;45.472;-122.822;2023-05-10T03:24:37;1.67;;;1.00;;
6374;SDS011;35400;45.472;-122.822;2023-05-10T03:27:09;1.37;;;1.13;;
6374;SDS011;35400;45.472;-122.822;2023-05-10T03:29:37;1.87;;;1.20;;
6374;SDS011;35400;45.472;-122.822;2023-05-10T03:32:05;1.00;;;1.00;;
6374;SDS011;35400;45.472;-122.822;2023-05-10T03:34:33;1.00;;;1.00;;
6374;SDS011;35400;45.472;-122.822;2023-05-10T03:37:00;1.83;;;0.90;;
6374;SDS011;35400;45.472;-122.822;2023-05-10T03:39:29;2.37;;;1.00;;
6374;SDS011;35400;45.472;-122.822;2023-05-10T03:41:58;1.53;;;1.03;;
6374;SDS011;35400;45.472;-122.822;2023-05-10T03:44:25;1.33;;;0.90;;
6374;SDS011;35400;45.472;-122.822;2023-05-10T03:46:52;1.73;;;0.90;;
6374;SDS011;35400;45.472;-122.822;2023-05-10T03:49:19;1.67;;;1.10;;
6374;SDS011;35400;45.472;-122.822;2023-05-10T03:51:47;2.63;;;1.00;;
6374;SDS011;35400;45.472;-122.822;2023-05-10T03:54:15;3.73;;;0.77;;
6374;SDS011;35400;45.472;-122.822;2023-05-10T03:56:41;1.17;;;1.00;;
6374;SDS011;35400;45.472;-122.822;2023-05-10T03:59:08;1.73;;;0.90;;
6374;SDS011;35400;45.472;-122.822;2023-05-10T04:01:35;1.63;;;0.90;;
6374;SDS011;35400;45.472;-122.822;2023-05-10T04:04:02;1.23;;;1.00;;
6374;SDS011;35400;45.472;-122.822;2023-05-10T04:06:30;3.57;;;0.90;;
6374;SDS011;35400;45.472;-122.822;2023-05-10T04:08:57;1.10;;;1.00;;
6374;SDS011;35400;45.472;-122.822;2023-05-10T04:11:30;1.87;;;0.90;;
6374;SDS011;35400;45.472;-122.822;2023-05-10T04:13:56;1.30;;;1.00;;
6374;SDS011;35400;45.472;-122.822;2023-05-10T04:16:23;1.10;;;0.83;;
6374;SDS011;35400;45.472;-122.822;2023-05-10T04:18:50;0.80;;;0.80;;
6374;SDS011;35400;45.472;-122.822;2023-05-10T04:21:17;4.43;;;1.50;;
6374;SDS011;35400;45.472;-122.822;2023-05-10T04:23:44;1.53;;;0.90;;
6374;SDS011;35400;45.472;-122.822;2023-05-10T04:26:11;1.27;;;1.00;;
6374;SDS011;35400;45.472;-122.822;2023-05-10T04:28:38;1.30;;;0.80;;
6374;SDS011;35400;45.472;-122.822;2023-05-10T04:31:05;1.00;;;1.00;;
6374;SDS011;35400;45.472;-122.822;2023-05-10T04:33:33;1.00;;;0.90;;
6374;SDS011;35400;45.472;-122.822;2023-05-10T04:36:01;1.20;;;1.10;;
6374;SDS011;35400;45.472;-122.822;2023-05-10T04:38:28;1.57;;;1.13;;
6374;SDS011;35400;45.472;-122.822;2023-05-10T04:41:08;1.50;;;1.10;;
6374;SDS011;35400;45.472;-122.822;2023-05-10T04:43:36;1.33;;;1.00;;
6374;SDS011;35400;45.472;-122.822;2023-05-10T04:46:03;1.97;;;1.20;;
6374;SDS011;35400;45.472;-122.822;2023-05-10T04:48:32;1.30;;;1.20;;
6374;SDS011;35400;45.472;-122.822;2023-05-10T04:50:59;1.57;;;1.40;;
6374;SDS011;35400;45.472;-122.822;2023-05-10T04:53:27;2.30;;;1.50;;
6374;SDS011;35400;45.472;-122.822;2023-05-10T04:55:54;3.80;;;1.47;;
6374;SDS011;35400;45.472;-122.822;2023-05-10T04:58:21;1.50;;;1.40;;
6374;SDS011;35400;45.472;-122.822;2023-05-10T05:00:47;3.33;;;1.53;;
6374;SDS011;35400;45.472;-122.822;2023-05-10T05:03:14;1.20;;;1.10;;
6374;SDS011;35400;45.472;-122.822;2023-05-10T05:05:41;2.03;;;1.80;;
6374;SDS011;35400;45.472;-122.822;2023-05-10T05:08:09;1.87;;;1.70;;
6374;SDS011;35400;45.472;-122.822;2023-05-10T05:10:36;3.20;;;1.83;;
6374;SDS011;35400;45.472;-122.822;2023-05-10T05:13:02;4.60;;;1.93;;
6374;SDS011;35400;45.472;-122.822;2023-05-10T05:15:29;3.53;;;1.70;;
6374;SDS011;35400;45.472;-122.822;2023-05-10T05:17:56;2.17;;;1.70;;
6374;SDS011;35400;45.472;-122.822;2023-05-10T05:20:23;1.80;;;1.60;;
6374;SDS011;35400;45.472;-122.822;2023-05-10T05:22:50;2.27;;;1.47;;
6374;SDS011;35400;45.472;-122.822;2023-05-10T05:25:17;4.63;;;2.17;;
6374;SDS011;35400;45.472;-122.822;2023-05-10T05:27:44;4.37;;;1.77;;
6374;SDS011;35400;45.472;-122.822;2023-05-10T05:30:11;1.40;;;1.20;;
6374;SDS011;35400;45.472;-122.822;2023-05-10T05:32:38;3.17;;;1.37;;
6374;SDS011;35400;45.472;-122.822;2023-05-10T05:35:05;2.53;;;1.40;;
6374;SDS011;35400;45.472;-122.822;2023-05-10T05:37:32;1.93;;;1.30;;
6374;SDS011;35400;45.472;-122.822;2023-05-10T05:39:59;1.53;;;1.40;;
6374;SDS011;35400;45.472;-122.822;2023-05-10T05:42:27;1.83;;;1.63;;
6374;SDS011;35400;45.472;-122.822;2023-05-10T05:44:54;2.00;;;1.40;;
6374;SDS011;35400;45.472;-122.822;2023-05-10T05:47:21;1.37;;;1.27;;
6374;SDS011;35400;45.472;-122.822;2023-05-10T05:49:47;1.70;;;1.20;;
6374;SDS011;35400;45.472;-122.822;2023-05-10T05:52:14;2.97;;;1.10;;
6374;SDS011;35400;45.472;-122.822;2023-05-10T05:54:41;1.70;;;1.30;;
6374;SDS011;35400;45.472;-122.822;2023-05-10T05:57:09;1.13;;;1.10;;
6374;SDS011;35400;45.472;-122.822;2023-05-10T05:59:36;1.10;;;1.00;;
6374;SDS011;35400;45.472;-122.822;2023-05-10T06:02:09;1.20;;;1.00;;
6374;SDS011;35400;45.472;-122.822;2023-05-10T06:04:36;1.53;;;1.13;;
6374;SDS011;35400;45.472;-122.822;2023-05-10T06:07:03;2.87;;;1.10;;
6374;SDS011;35400;45.472;-122.822;2023-05-10T06:09:30;1.30;;;1.10;;
6374;SDS011;35400;45.472;-122.822;2023-05-10T06:11:57;2.03;;;1.10;;
6374;SDS011;35400;45.472;-122.822;2023-05-10T06:14:23;1.70;;;1.10;;
6374;SDS011;35400;45.472;-122.822;2023-05-10T06:16:50;1.10;;;1.00;;
6374;SDS011;35400;45.472;-122.822;2023-05-10T06:19:17;3.23;;;1.00;;
6374;SDS011;35400;45.472;-122.822;2023-05-10T06:21:44;0.70;;;0.70;;
6374;SDS011;35400;45.472;-122.822;2023-05-10T06:24:11;1.07;;;0.97;;
6374;SDS011;35400;45.472;-122.822;2023-05-10T06:26:38;0.87;;;0.87;;
6374;SDS011;35400;45.472;-122.822;2023-05-10T06:29:05;1.47;;;0.83;;
6374;SDS011;35400;45.472;-122.822;2023-05-10T06:31:32;1.03;;;0.80;;
6374;SDS011;35400;45.472;-122.822;2023-05-10T06:33:58;1.80;;;0.93;;
6374;SDS011;35400;45.472;-122.822;2023-05-10T06:36:25;2.47;;;0.90;;
6374;SDS011;35400;45.472;-122.822;2023-05-10T06:38:52;1.10;;;1.00;;
6374;SDS011;35400;45.472;-122.822;2023-05-10T06:41:19;1.10;;;1.00;;
6374;SDS011;35400;45.472;-122.822;2023-05-10T06:43:46;1.63;;;0.83;;
6374;SDS011;35400;45.472;-122.822;2023-05-10T06:46:13;1.77;;;0.90;;
6374;SDS011;35400;45.472;-122.822;2023-05-10T06:48:40;1.63;;;1.00;;
6374;SDS011;35400;45.472;-122.822;2023-05-10T06:51:08;3.07;;;1.30;;
6374;SDS011;35400;45.472;-122.822;2023-05-10T06:53:35;2.47;;;0.73;;
6374;SDS011;35400;45.472;-122.822;2023-05-10T06:56:02;1.37;;;0.80;;
6374;SDS011;35400;45.472;-122.822;2023-05-10T06:58:29;1.73;;;1.00;;
6374;SDS011;35400;45.472;-122.822;2023-05-10T07:01:01;1.60;;;0.80;;
6374;SDS011;35400;45.472;-122.822;2023-05-10T07:03:29;2.13;;;0.80;;
6374;SDS011;35400;45.472;-122.822;2023-05-10T07:06:02;1.70;;;0.83;;
6374;SDS011;35400;45.472;-122.822;2023-05-10T07:08:33;0.70;;;0.70;;
6374;SDS011;35400;45.472;-122.822;2023-05-10T07:11:03;1.27;;;0.80;;
6374;SDS011;35400;45.472;-122.822;2023-05-10T07:13:34;6.07;;;1.10;;
6374;SDS011;35400;45.472;-122.822;2023-05-10T07:16:01;1.43;;;0.67;;
6374;SDS011;35400;45.472;-122.822;2023-05-10T07:18:28;0.70;;;0.70;;
6374;SDS011;35400;45.472;-122.822;2023-05-10T07:20:56;0.80;;;0.77;;
6374;SDS011;35400;45.472;-122.822;2023-05-10T07:23:23;1.10;;;1.00;;
6374;SDS011;35400;45.472;-122.822;2023-05-10T07:25:50;1.57;;;0.90;;
6374;SDS011;35400;45.472;-122.822;2023-05-10T07:28:18;1.67;;;1.10;;
6374;SDS011;35400;45.472;-122.822;2023-05-10T07:30:45;1.67;;;0.83;;
6374;SDS011;35400;45.472;-122.822;2023-05-10T07:33:12;2.40;;;1.07;;
6374;SDS011;35400;45.472;-122.822;2023-05-10T07:35:40;2.40;;;1.03;;
6374;SDS011;35400;45.472;-122.822;2023-05-10T07:38:07;2.27;;;1.17;;
6374;SDS011;35400;45.472;-122.822;2023-05-10T07:40:33;5.30;;;1.17;;
6374;SDS011;35400;45.472;-122.822;2023-05-10T07:43:00;2.37;;;0.80;;
6374;SDS011;35400;45.472;-122.822;2023-05-10T07:45:28;1.63;;;0.90;;
6374;SDS011;35400;45.472;-122.822;2023-05-10T07:47:54;1.70;;;0.80;;
6374;SDS011;35400;45.472;-122.822;2023-05-10T07:50:21;1.73;;;1.10;;
6374;SDS011;35400;45.472;-122.822;2023-05-10T07:52:48;1.13;;;0.90;;
6374;SDS011;35400;45.472;-122.822;2023-05-10T07:55:15;1.43;;;0.87;;
6374;SDS011;35400;45.472;-122.822;2023-05-10T07:57:44;1.43;;;0.80;;
6374;SDS011;35400;45.472;-122.822;2023-05-10T08:00:12;1.87;;;1.10;;
6374;SDS011;35400;45.472;-122.822;2023-05-10T08:02:42;1.93;;;1.03;;
6374;SDS011;35400;45.472;-122.822;2023-05-10T08:05:09;2.07;;;0.80;;
6374;SDS011;35400;45.472;-122.822;2023-05-10T08:07:36;1.17;;;0.90;;
6374;SDS011;35400;45.472;-122.822;2023-05-10T08:10:03;0.90;;;0.90;;
6374;SDS011;35400;45.472;-122.822;2023-05-10T08:12:30;1.77;;;1.00;;
6374;SDS011;35400;45.472;-122.822;2023-05-10T08:14:57;1.13;;;1.07;;
6374;SDS011;35400;45.472;-122.822;2023-05-10T08:17:23;1.23;;;1.10;;
6374;SDS011;35400;45.472;-122.822;2023-05-10T08:19:50;1.77;;;1.00;;
6374;SDS011;35400;45.472;-122.822;2023-05-10T08:22:18;0.90;;;0.90;;
6374;SDS011;35400;45.472;-122.822;2023-05-10T08:24:45;1.13;;;1.10;;
6374;SDS011;35400;45.472;-122.822;2023-05-10T08:27:12;3.83;;;1.10;;
6374;SDS011;35400;45.472;-122.822;2023-05-10T08:29:38;3.07;;;1.00;;
6374;SDS011;35400;45.472;-122.822;2023-05-10T08:32:05;1.50;;;0.93;;
6374;SDS011;35400;45.472;-122.822;2023-05-10T08:34:32;3.23;;;1.03;;
6374;SDS011;35400;45.472;-122.822;2023-05-10T08:36:59;2.60;;;1.17;;
6374;SDS011;35400;45.472;-122.822;2023-05-10T08:39:26;3.00;;;0.97;;
6374;SDS011;35400;45.472;-122.822;2023-05-10T08:41:53;1.83;;;0.87;;
6374;SDS011;35400;45.472;-122.822;2023-05-10T08:44:24;2.83;;;1.27;;
6374;SDS011;35400;45.472;-122.822;2023-05-10T08:46:51;1.63;;;1.00;;
6374;SDS011;35400;45.472;-122.822;2023-05-10T08:49:20;2.37;;;0.90;;
6374;SDS011;35400;45.472;-122.822;2023-05-10T08:51:50;1.37;;;0.80;;
6374;SDS011;35400;45.472;-122.822;2023-05-10T08:54:21;1.80;;;0.90;;
6374;SDS011;35400;45.472;-122.822;2023-05-10T08:56:48;4.43;;;1.73;;
6374;SDS011;35400;45.472;-122.822;2023-05-10T08:59:15;3.10;;;1.10;;
6374;SDS011;35400;45.472;-122.822;2023-05-10T09:01:42;1.70;;;0.93;;
6374;SDS011;35400;45.472;-122.822;2023-05-10T09:04:11;0.90;;;0.70;;
6374;SDS011;35400;45.472;-122.822;2023-05-10T09:06:38;2.60;;;1.00;;
6374;SDS011;35400;45.472;-122.822;2023-05-10T09:09:08;2.00;;;0.97;;
6374;SDS011;35400;45.472;-122.822;2023-05-10T09:11:36;1.43;;;1.10;;
6374;SDS011;35400;45.472;-122.822;2023-05-10T09:14:03;1.03;;;0.90;;
6374;SDS011;35400;45.472;-122.822;2023-05-10T09:16:30;1.77;;;1.00;;
6374;SDS011;35400;45.472;-122.822;2023-05-10T09:18:57;1.40;;;1.30;;
6374;SDS011;35400;45.472;-122.822;2023-05-10T09:21:24;1.87;;;1.00;;
6374;SDS011;35400;45.472;-122.822;2023-05-10T09:23:51;1.50;;;1.00;;
6374;SDS011;35400;45.472;-122.822;2023-05-10T09:26:23;2.50;;;0.90;;
6374;SDS011;35400;45.472;-122.822;2023-05-10T09:28:51;2.27;;;0.90;;
6374;SDS011;35400;45.472;-122.822;2023-05-10T09:31:22;1.03;;;0.90;;
6374;SDS011;35400;45.472;-122.822;2023-05-10T09:33:50;1.77;;;1.00;;
6374;SDS011;35400;45.472;-122.822;2023-05-10T09:36:17;1.67;;;0.90;;
6374;SDS011;35400;45.472;-122.822;2023-05-10T09:38:45;1.70;;;1.33;;
6374;SDS011;35400;45.472;-122.822;2023-05-10T09:41:17;2.90;;;0.90;;
6374;SDS011;35400;45.472;-122.822;2023-05-10T09:43:45;1.73;;;0.90;;
6374;SDS011;35400;45.472;-122.822;2023-05-10T09:46:11;1.20;;;0.90;;
6374;SDS011;35400;45.472;-122.822;2023-05-10T09:48:43;2.43;;;1.03;;
6374;SDS011;35400;45.472;-122.822;2023-05-10T09:51:19;1.93;;;1.33;;
6374;SDS011;35400;45.472;-122.822;2023-05-10T09:53:47;1.17;;;1.07;;
6374;SDS011;35400;45.472;-122.822;2023-05-10T09:59:12;1.10;;;1.00;;
6374;SDS011;35400;45.472;-122.822;2023-05-10T10:01:39;1.07;;;0.97;;
6374;SDS011;35400;45.472;-122.822;2023-05-10T10:04:07;1.10;;;1.00;;
6374;SDS011;35400;45.472;-122.822;2023-05-10T10:06:36;1.53;;;1.00;;
6374;SDS011;35400;45.472;-122.822;2023-05-10T10:09:07;2.33;;;1.00;;
6374;SDS011;35400;45.472;-122.822;2023-05-10T10:11:35;2.53;;;1.07;;
6374;SDS011;35400;45.472;-122.822;2023-05-10T10:14:03;1.30;;;0.97;;
6374;SDS011;35400;45.472;-122.822;2023-05-10T10:16:31;1.40;;;0.77;;
6374;SDS011;35400;45.472;-122.822;2023-05-10T10:18:58;1.10;;;0.97;;
6374;SDS011;35400;45.472;-122.822;2023-05-10T10:21:26;1.20;;;1.07;;
6374;SDS011;35400;45.472;-122.822;2023-05-10T10:23:53;4.10;;;0.80;;
6374;SDS011;35400;45.472;-122.822;2023-05-10T10:26:20;1.43;;;0.90;;
6374;SDS011;35400;45.472;-122.822;2023-05-10T10:29:08;3.87;;;0.97;;
6374;SDS011;35400;45.472;-122.822;2023-05-10T10:34:28;1.40;;;1.30;;
6374;SDS011;35400;45.472;-122.822;2023-05-10T10:36:56;0.80;;;0.80;;
6374;SDS011;35400;45.472;-122.822;2023-05-10T10:39:24;1.53;;;1.20;;
6374;SDS011;35400;45.472;-122.822;2023-05-10T10:41:57;1.70;;;0.90;;
6374;SDS011;35400;45.472;-122.822;2023-05-10T10:44:26;0.87;;;0.87;;
6374;SDS011;35400;45.472;-122.822;2023-05-10T10:49:50;2.43;;;1.33;;
6374;SDS011;35400;45.472;-122.822;2023-05-10T10:54:59;1.33;;;1.13;;
6374;SDS011;35400;45.472;-122.822;2023-05-10T10:57:28;3.20;;;1.10;;
6374;SDS011;35400;45.472;-122.822;2023-05-10T11:00:44;1.47;;;0.87;;
6374;SDS011;35400;45.472;-122.822;2023-05-10T11:02:55;1.87;;;0.93;;
6374;SDS011;35400;45.472;-122.822;2023-05-10T11:10:37;1.83;;;1.10;;
6374;SDS011;35400;45.472;-122.822;2023-05-10T11:13:42;0.90;;;0.80;;
6374;SDS011;35400;45.472;-122.822;2023-05-10T11:19:03;0.83;;;0.77;;
6374;SDS011;35400;45.472;-122.822;2023-05-10T11:21:30;1.73;;;1.00;;
6374;SDS011;35400;45.472;-122.822;2023-05-10T11:23:58;1.10;;;1.00;;
6374;SDS011;35400;45.472;-122.822;2023-05-10T11:26:31;1.17;;;1.07;;
6374;SDS011;35400;45.472;-122.822;2023-05-10T11:29:00;1.37;;;1.00;;
6374;SDS011;35400;45.472;-122.822;2023-05-10T11:31:28;1.23;;;1.03;;
6374;SDS011;35400;45.472;-122.822;2023-05-10T11:33:56;1.73;;;1.17;;
6374;SDS011;35400;45.472;-122.822;2023-05-10T11:36:24;1.80;;;1.07;;
6374;SDS011;35400;45.472;-122.822;2023-05-10T11:39:01;1.40;;;1.03;;
6374;SDS011;35400;45.472;-122.822;2023-05-10T11:41:29;2.47;;;1.30;;
6374;SDS011;35400;45.472;-122.822;2023-05-10T11:43:57;1.13;;;1.00;;
6374;SDS011;35400;45.472;-122.822;2023-05-10T11:46:24;1.43;;;0.90;;
6374;SDS011;35400;45.472;-122.822;2023-05-10T11:48:53;3.27;;;1.30;;
6374;SDS011;35400;45.472;-122.822;2023-05-10T11:51:27;2.83;;;1.03;;
6374;SDS011;35400;45.472;-122.822;2023-05-10T11:53:55;2.60;;;1.00;;
6374;SDS011;35400;45.472;-122.822;2023-05-10T11:56:22;1.10;;;1.00;;
6374;SDS011;35400;45.472;-122.822;2023-05-10T11:58:55;1.23;;;0.90;;
6374;SDS011;35400;45.472;-122.822;2023-05-10T12:01:23;1.50;;;1.20;;
6374;SDS011;35400;45.472;-122.822;2023-05-10T12:03:52;0.87;;;0.87;;
6374;SDS011;35400;45.472;-122.822;2023-05-10T12:06:21;1.10;;;1.00;;
6374;SDS011;35400;45.472;-122.822;2023-05-10T12:08:48;1.40;;;1.00;;
6374;SDS011;35400;45.472;-122.822;2023-05-10T12:11:19;3.50;;;1.00;;
6374;SDS011;35400;45.472;-122.822;2023-05-10T12:13:50;1.10;;;1.00;;
6374;SDS011;35400;45.472;-122.822;2023-05-10T12:16:19;1.20;;;1.10;;
6374;SDS011;35400;45.472;-122.822;2023-05-10T12:18:51;3.07;;;1.13;;
6374;SDS011;35400;45.472;-122.822;2023-05-10T12:21:20;2.40;;;1.03;;
6374;SDS011;35400;45.472;-122.822;2023-05-10T12:23:51;2.97;;;1.23;;
6374;SDS011;35400;45.472;-122.822;2023-05-10T12:26:24;2.67;;;1.00;;
6374;SDS011;35400;45.472;-122.822;2023-05-10T12:28:55;2.07;;;1.27;;
6374;SDS011;35400;45.472;-122.822;2023-05-10T12:31:55;1.67;;;1.07;;
6374;SDS011;35400;45.472;-122.822;2023-05-10T12:34:32;1.30;;;1.10;;
6374;SDS011;35400;45.472;-122.822;2023-05-10T12:37:02;2.60;;;1.10;;
6374;SDS011;35400;45.472;-122.822;2023-05-10T12:39:39;2.30;;;1.07;;
6374;SDS011;35400;45.472;-122.822;2023-05-10T12:42:08;2.07;;;1.20;;
6374;SDS011;35400;45.472;-122.822;2023-05-10T12:44:36;2.10;;;1.13;;
6374;SDS011;35400;45.472;-122.822;2023-05-10T12:47:02;1.37;;;1.23;;
6374;SDS011;35400;45.472;-122.822;2023-05-10T12:49:29;1.17;;;1.10;;
6374;SDS011;35400;45.472;-122.822;2023-05-10T12:51:56;1.53;;;1.07;;
6374;SDS011;35400;45.472;-122.822;2023-05-10T12:54:24;1.57;;;0.90;;
6374;SDS011;35400;45.472;-122.822;2023-05-10T12:56:50;3.40;;;1.20;;
6374;SDS011;35400;45.472;-122.822;2023-05-10T12:59:17;1.83;;;1.23;;
6374;SDS011;35400;45.472;-122.822;2023-05-10T13:01:44;2.37;;;1.23;;
6374;SDS011;35400;45.472;-122.822;2023-05-10T13:04:11;1.40;;;1.30;;
6374;SDS011;35400;45.472;-122.822;2023-05-10T13:06:38;3.60;;;1.67;;
6374;SDS011;35400;45.472;-122.822;2023-05-10T13:09:04;1.63;;;1.40;;
6374;SDS011;35400;45.472;-122.822;2023-05-10T13:11:31;1.60;;;1.00;;
6374;SDS011;35400;45.472;-122.822;2023-05-10T13:13:58;4.00;;;1.40;;
6374;SDS011;35400;45.472;-122.822;2023-05-10T13:16:25;1.47;;;1.37;;
6374;SDS011;35400;45.472;-122.822;2023-05-10T13:18:52;1.37;;;1.07;;
6374;SDS011;35400;45.472;-122.822;2023-05-10T13:21:19;1.37;;;1.27;;
6374;SDS011;35400;45.472;-122.822;2023-05-10T13:23:46;2.60;;;1.23;;
6374;SDS011;35400;45.472;-122.822;2023-05-10T13:26:13;2.53;;;1.50;;
6374;SDS011;35400;45.472;-122.822;2023-05-10T13:28:40;1.40;;;1.27;;
6374;SDS011;35400;45.472;-122.822;2023-05-10T13:31:07;1.83;;;1.23;;
6374;SDS011;35400;45.472;-122.822;2023-05-10T13:33:34;1.37;;;1.10;;
6374;SDS011;35400;45.472;-122.822;2023-05-10T13:36:00;2.77;;;1.20;;
6374;SDS011;35400;45.472;-122.822;2023-05-10T13:38:27;2.03;;;1.23;;
6374;SDS011;35400;45.472;-122.822;2023-05-10T13:40:54;1.13;;;1.10;;
6374;SDS011;35400;45.472;-122.822;2023-05-10T13:43:21;1.23;;;1.13;;
6374;SDS011;35400;45.472;-122.822;2023-05-10T13:45:48;3.30;;;1.70;;
6374;SDS011;35400;45.472;-122.822;2023-05-10T13:48:15;3.27;;;1.50;;
6374;SDS011;35400;45.472;-122.822;2023-05-10T13:50:42;2.23;;;1.50;;
6374;SDS011;35400;45.472;-122.822;2023-05-10T13:53:09;1.83;;;1.33;;
6374;SDS011;35400;45.472;-122.822;2023-05-10T13:55:36;2.47;;;1.50;;
6374;SDS011;35400;45.472;-122.822;2023-05-10T13:58:03;2.90;;;1.20;;
6374;SDS011;35400;45.472;-122.822;2023-05-10T14:00:30;1.63;;;1.47;;
6374;SDS011;35400;45.472;-122.822;2023-05-10T14:02:57;3.00;;;1.37;;
6374;SDS011;35400;45.472;-122.822;2023-05-10T14:05:24;3.53;;;1.50;;
6374;SDS011;35400;45.472;-122.822;2023-05-10T14:07:51;2.53;;;1.33;;
6374;SDS011;35400;45.472;-122.822;2023-05-10T14:10:17;3.73;;;1.83;;
6374;SDS011;35400;45.472;-122.822;2023-05-10T14:12:44;3.33;;;2.30;;
6374;SDS011;35400;45.472;-122.822;2023-05-10T14:15:11;2.93;;;2.20;;
6374;SDS011;35400;45.472;-122.822;2023-05-10T14:17:39;2.40;;;1.87;;
6374;SDS011;35400;45.472;-122.822;2023-05-10T14:20:06;2.77;;;1.67;;
6374;SDS011;35400;45.472;-122.822;2023-05-10T14:22:34;4.87;;;1.70;;
6374;SDS011;35400;45.472;-122.822;2023-05-10T14:25:01;2.73;;;1.80;;
6374;SDS011;35400;45.472;-122.822;2023-05-10T14:27:28;3.17;;;2.10;;
6374;SDS011;35400;45.472;-122.822;2023-05-10T14:29:55;3.57;;;1.80;;
6374;SDS011;35400;45.472;-122.822;2023-05-10T14:32:22;5.57;;;2.20;;
6374;SDS011;35400;45.472;-122.822;2023-05-10T14:34:49;6.60;;;2.07;;
6374;SDS011;35400;45.472;-122.822;2023-05-10T14:37:16;2.57;;;2.33;;
6374;SDS011;35400;45.472;-122.822;2023-05-10T14:39:43;3.63;;;2.47;;
6374;SDS011;35400;45.472;-122.822;2023-05-10T14:42:09;4.73;;;2.60;;
6374;SDS011;35400;45.472;-122.822;2023-05-10T14:44:36;2.53;;;1.97;;
6374;SDS011;35400;45.472;-122.822;2023-05-10T14:47:03;2.60;;;2.40;;
6374;SDS011;35400;45.472;-122.822;2023-05-10T14:49:30;2.53;;;1.73;;
6374;SDS011;35400;45.472;-122.822;2023-05-10T14:51:57;4.47;;;1.90;;
6374;SDS011;35400;45.472;-122.822;2023-05-10T14:54:24;3.23;;;1.70;;
6374;SDS011;35400;45.472;-122.822;2023-05-10T14:56:51;2.60;;;1.77;;
6374;SDS011;35400;45.472;-122.822;2023-05-10T14:59:18;1.70;;;1.60;;
6374;SDS011;35400;45.472;-122.822;2023-05-10T15:01:46;4.63;;;1.80;;
6374;SDS011;35400;45.472;-122.822;2023-05-10T15:04:12;3.10;;;1.63;;
6374;SDS011;35400;45.472;-122.822;2023-05-10T15:06:41;4.93;;;1.60;;